Hopewell Township, New Jersey
Current Conditions -  °F | °C
As of 6:53 AM on Sunday 25 Jan 2015 (Local Time) from KTTN Reporting Station
Overcast Overcast  
Wind Chill: 28°   Ceiling: 3500
Heat Index: 33°   Visibility: 9mi
Dew Point: 26°   Wind: 6mph
Humidity: 75%   Direction: 230°SW
Pressure: 29.7"   Gusts: NA
Location:  40.3975°N, 74.7746°W
Report Text: KTTN 251153Z 23005KT 9SM BKN035 OVC055 01/M03 A2970 RMK AO2 SLP055 70015 T00061033 10017 20000 53024
Loading
Personal Weather Stations






























Interactive Weather Map New forecast layout! Learn more

10-Day Weather Forecast

Advertisements
Track Severe Weather on mobile